Time,TemperatureF,DewpointF,PressureIn,WindDirection,WindDirectionDegrees,WindSpeedMPH,WindSpeedGustMPH,Humidity,HourlyPrecipIn,Conditions,Clouds,dailyrainin,SoftwareType,DateUTC
2013-01-09 00:03:00,28.8,24.9,30.35,SE,130,1.0,4.0,85,0.00,,---,0.00,VWS V14.01,2013-01-09 06:03:00,
2013-01-09 00:08:00,28.5,24.6,30.36,ESE,120,2.0,2.0,85,0.00,,---,0.00,VWS V14.01,2013-01-09 06:08:00,
2013-01-09 00:13:00,28.3,24.7,30.36,ESE,120,0.0,2.0,86,0.00,,---,0.00,VWS V14.01,2013-01-09 06:13:00,
2013-01-09 00:18:00,28.1,24.5,30.36,ESE,120,0.0,2.0,86,0.00,,---,0.00,VWS V14.01,2013-01-09 06:18:00,
2013-01-09 00:23:00,28.0,24.4,30.36,ESE,120,0.0,2.0,86,0.00,,---,0.00,VWS V14.01,2013-01-09 06:23:00,
2013-01-09 00:28:00,28.0,24.6,30.37,SE,134,1.0,3.0,87,0.00,,---,0.00,VWS V14.01,2013-01-09 06:28:00,
2013-01-09 00:33:00,27.9,24.5,30.38,SE,139,2.0,3.0,87,0.00,,---,0.00,VWS V14.01,2013-01-09 06:33:00,
2013-01-09 00:38:00,27.8,24.2,30.39,SE,137,1.0,2.0,86,0.00,,---,0.00,VWS V14.01,2013-01-09 06:38:00,
2013-01-09 00:43:00,27.7,24.3,30.39,SE,137,1.0,3.0,87,0.00,,---,0.00,VWS V14.01,2013-01-09 06:43:00,
2013-01-09 00:48:00,27.7,24.3,30.40,SE,135,2.0,3.0,87,0.00,,---,0.00,VWS V14.01,2013-01-09 06:48:00,
2013-01-09 00:53:00,27.6,24.2,30.40,SE,133,2.0,3.0,87,0.00,,---,0.00,VWS V14.01,2013-01-09 06:53:00,
2013-01-09 00:58:00,27.7,24.3,30.40,SE,131,2.0,4.0,87,0.00,,---,0.00,VWS V14.01,2013-01-09 06:58:00,
2013-01-09 01:03:00,27.8,24.4,30.40,SE,140,4.0,4.0,87,0.00,,---,0.00,VWS V14.01,2013-01-09 07:03:00,
2013-01-09 01:08:00,27.8,24.4,30.40,SE,137,2.0,4.0,87,0.00,,---,0.00,VWS V14.01,2013-01-09 07:08:00,
2013-01-09 01:13:00,28.0,24.6,30.40,SE,133,2.0,4.0,87,0.00,,---,0.00,VWS V14.01,2013-01-09 07:13:00,
2013-01-09 01:18:00,28.3,24.9,30.41,SE,146,3.0,4.0,87,0.00,,---,0.00,VWS V14.01,2013-01-09 07:18:00,
2013-01-09 01:23:00,28.5,24.9,30.41,SE,146,3.0,4.0,86,0.00,,---,0.00,VWS V14.01,2013-01-09 07:23:00,
2013-01-09 01:28:00,28.8,25.1,30.41,SE,141,4.0,6.0,86,0.00,,---,0.00,VWS V14.01,2013-01-09 07:28:00,
2013-01-09 01:33:00,28.9,25.0,30.41,SE,139,2.0,6.0,85,0.00,,---,0.00,VWS V14.01,2013-01-09 07:33:00,
2013-01-09 01:38:00,28.9,25.0,30.41,SE,134,1.0,4.0,85,0.00,,---,0.00,VWS V14.01,2013-01-09 07:38:00,
2013-01-09 01:43:00,28.7,25.0,30.41,SE,135,1.0,4.0,86,0.00,,---,0.00,VWS V14.01,2013-01-09 07:43:00,
2013-01-09 01:48:00,28.6,25.0,30.41,SE,134,0.0,4.0,86,0.00,,---,0.00,VWS V14.01,2013-01-09 07:48:00,
2013-01-09 01:53:00,28.4,24.8,30.41,SE,134,1.0,4.0,86,0.00,,---,0.00,VWS V14.01,2013-01-09 07:53:00,
2013-01-09 01:58:00,28.2,24.6,30.41,SE,134,0.0,4.0,86,0.00,,---,0.00,VWS V14.01,2013-01-09 07:58:00,
2013-01-09 02:03:00,27.9,24.3,30.41,SE,134,0.0,4.0,86,0.00,,---,0.00,VWS V14.01,2013-01-09 08:03:00,
2013-01-09 02:08:00,27.3,23.7,30.41,SE,134,0.0,1.0,86,0.00,,---,0.00,VWS V14.01,2013-01-09 08:08:00,
2013-01-09 02:13:00,27.1,24.0,30.41,SE,135,0.0,2.0,88,0.00,,---,0.00,VWS V14.01,2013-01-09 08:13:00,
2013-01-09 02:18:00,27.2,24.1,30.41,SE,134,0.0,2.0,88,0.00,,---,0.00,VWS V14.01,2013-01-09 08:18:00,
2013-01-09 02:23:00,27.0,23.6,30.41,SE,134,0.0,2.0,87,0.00,,---,0.00,VWS V14.01,2013-01-09 08:23:00,
2013-01-09 02:28:00,27.0,23.9,30.43,SE,128,2.0,2.0,88,0.00,,---,0.00,VWS V14.01,2013-01-09 08:28:00,
2013-01-09 02:33:00,27.1,24.0,30.43,ESE,120,1.0,3.0,88,0.00,,---,0.00,VWS V14.01,2013-01-09 08:33:00,
2013-01-09 02:38:00,27.3,24.2,30.43,SE,141,2.0,3.0,88,0.00,,---,0.00,VWS V14.01,2013-01-09 08:38:00,
2013-01-09 02:43:00,27.4,24.3,30.43,SE,133,1.0,3.0,88,0.00,,---,0.00,VWS V14.01,2013-01-09 08:43:00,
2013-01-09 02:48:00,27.4,24.0,30.43,SE,134,1.0,3.0,87,0.00,,---,0.00,VWS V14.01,2013-01-09 08:48:00,
2013-01-09 02:53:00,27.3,24.0,30.42,SE,136,0.0,3.0,87,0.00,,---,0.00,VWS V14.01,2013-01-09 08:53:00,
2013-01-09 02:58:00,27.3,24.2,30.42,SE,139,2.0,3.0,88,0.00,,---,0.00,VWS V14.01,2013-01-09 08:58:00,
2013-01-09 03:03:00,27.4,24.3,30.43,SE,139,0.0,3.0,88,0.00,,---,0.00,VWS V14.01,2013-01-09 09:03:00,
2013-01-09 03:08:00,27.4,24.0,30.43,SE,138,0.0,2.0,87,0.00,,---,0.00,VWS V14.01,2013-01-09 09:08:00,
2013-01-09 03:13:00,27.1,23.8,30.43,SE,139,0.0,2.0,87,0.00,,---,0.00,VWS V14.01,2013-01-09 09:13:00,
2013-01-09 03:18:00,26.7,23.4,30.43,SE,139,0.0,2.0,87,0.00,,---,0.00,VWS V14.01,2013-01-09 09:18:00,
2013-01-09 03:23:00,26.6,23.5,30.43,SE,139,0.0,2.0,88,0.00,,---,0.00,VWS V14.01,2013-01-09 09:23:00,
2013-01-09 03:28:00,26.5,23.4,30.43,SE,139,1.0,2.0,88,0.00,,---,0.00,VWS V14.01,2013-01-09 09:28:00,
2013-01-09 03:33:00,26.4,23.3,30.43,SE,137,1.0,2.0,88,0.00,,---,0.00,VWS V14.01,2013-01-09 09:33:00,
2013-01-09 03:38:00,26.3,23.2,30.42,SE,139,1.0,2.0,88,0.00,,---,0.00,VWS V14.01,2013-01-09 09:38:00,
2013-01-09 03:43:00,26.2,23.1,30.43,SE,138,0.0,2.0,88,0.00,,---,0.00,VWS V14.01,2013-01-09 09:43:00,
2013-01-09 03:48:00,26.0,22.9,30.43,SE,136,1.0,2.0,88,0.00,,---,0.00,VWS V14.01,2013-01-09 09:48:00,
2013-01-09 03:53:00,25.8,22.7,30.43,SE,136,0.0,2.0,88,0.00,,---,0.00,VWS V14.01,2013-01-09 09:53:00,
2013-01-09 03:58:00,25.8,23.0,30.44,East,87,1.0,3.0,89,0.00,,---,0.00,VWS V14.01,2013-01-09 09:58:00,
2013-01-09 04:03:00,25.8,23.0,30.43,East,88,2.0,3.0,89,0.00,,---,0.00,VWS V14.01,2013-01-09 10:03:00,
2013-01-09 04:08:00,25.9,23.1,30.43,ESE,106,1.0,2.0,89,0.00,,---,0.00,VWS V14.01,2013-01-09 10:08:00,
2013-01-09 04:13:00,25.8,23.0,30.43,ESE,106,0.0,2.0,89,0.00,,---,0.00,VWS V14.01,2013-01-09 10:13:00,
2013-01-09 04:18:00,25.7,22.9,30.42,ESE,106,0.0,2.0,89,0.00,,---,0.00,VWS V14.01,2013-01-09 10:18:00,
2013-01-09 04:23:00,25.4,22.6,30.42,ESE,106,0.0,2.0,89,0.00,,---,0.00,VWS V14.01,2013-01-09 10:23:00,
2013-01-09 04:28:00,25.1,22.3,30.42,ESE,106,0.0,2.0,89,0.00,,---,0.00,VWS V14.01,2013-01-09 10:28:00,
2013-01-09 04:33:00,24.7,21.9,30.42,ESE,106,0.0,2.0,89,0.00,,---,0.00,VWS V14.01,2013-01-09 10:33:00,
2013-01-09 04:38:00,24.5,22.0,30.42,ESE,106,0.0,0.0,90,0.00,,---,0.00,VWS V14.01,2013-01-09 10:38:00,
2013-01-09 04:43:00,24.4,21.9,30.42,ESE,106,0.0,0.0,90,0.00,,---,0.00,VWS V14.01,2013-01-09 10:43:00,
2013-01-09 04:48:00,24.4,21.9,30.42,ESE,109,1.0,1.0,90,0.00,,---,0.00,VWS V14.01,2013-01-09 10:48:00,
2013-01-09 04:53:00,24.4,21.9,30.42,ESE,114,0.0,1.0,90,0.00,,---,0.00,VWS V14.01,2013-01-09 10:53:00,
2013-01-09 04:58:00,24.0,21.2,30.42,ESE,114,0.0,1.0,89,0.00,,---,0.00,VWS V14.01,2013-01-09 10:58:00,
2013-01-09 05:03:00,24.0,21.8,30.42,ESE,114,0.0,1.0,91,0.00,,---,0.00,VWS V14.01,2013-01-09 11:03:00,
2013-01-09 05:08:00,23.9,21.7,30.42,ESE,114,0.0,0.0,91,0.00,,---,0.00,VWS V14.01,2013-01-09 11:08:00,
2013-01-09 05:13:00,23.7,21.2,30.42,ESE,114,0.0,1.0,90,0.00,,---,0.00,VWS V14.01,2013-01-09 11:13:00,
2013-01-09 05:18:00,23.6,21.4,30.42,East,88,3.0,3.0,91,0.00,,---,0.00,VWS V14.01,2013-01-09 11:18:00,
2013-01-09 05:22:00,23.9,21.7,30.43,East,97,2.0,3.0,91,0.00,,---,0.00,VWS V14.01,2013-01-09 11:22:00,
2013-01-09 05:27:00,24.0,21.5,30.43,East,80,3.0,3.0,90,0.00,,---,0.00,VWS V14.01,2013-01-09 11:27:00,
2013-01-09 05:32:00,24.1,21.6,30.43,East,96,2.0,3.0,90,0.00,,---,0.00,VWS V14.01,2013-01-09 11:32:00,
2013-01-09 05:37:00,24.1,21.6,30.43,East,99,0.0,3.0,90,0.00,,---,0.00,VWS V14.01,2013-01-09 11:37:00,
2013-01-09 05:42:00,23.9,21.4,30.43,East,99,0.0,3.0,90,0.00,,---,0.00,VWS V14.01,2013-01-09 11:42:00,
2013-01-09 05:47:00,23.7,20.9,30.44,East,99,0.0,3.0,89,0.00,,---,0.00,VWS V14.01,2013-01-09 11:47:00,
2013-01-09 05:52:00,23.5,21.0,30.44,East,99,1.0,3.0,90,0.00,,---,0.00,VWS V14.01,2013-01-09 11:52:00,
2013-01-09 05:57:00,23.5,21.0,30.44,East,99,0.0,3.0,90,0.00,,---,0.00,VWS V14.01,2013-01-09 11:57:00,
2013-01-09 06:02:00,23.2,20.7,30.43,East,99,0.0,3.0,90,0.00,,---,0.00,VWS V14.01,2013-01-09 12:02:00,
2013-01-09 06:07:00,23.1,20.6,30.43,ESE,120,0.0,1.0,90,0.00,,---,0.00,VWS V14.01,2013-01-09 12:07:00,
2013-01-09 06:12:00,23.3,21.1,30.44,ESE,120,1.0,1.0,91,0.00,,---,0.00,VWS V14.01,2013-01-09 12:12:00,
2013-01-09 06:17:00,23.3,20.8,30.44,ESE,120,0.0,1.0,90,0.00,,---,0.00,VWS V14.01,2013-01-09 12:17:00,
2013-01-09 06:22:00,23.2,20.7,30.43,ESE,120,0.0,1.0,90,0.00,,---,0.00,VWS V14.01,2013-01-09 12:22:00,
2013-01-09 06:27:00,23.0,20.5,30.44,ESE,120,0.0,1.0,90,0.00,,---,0.00,VWS V14.01,2013-01-09 12:27:00,
2013-01-09 06:32:00,23.1,20.9,30.44,ESE,120,0.0,1.0,91,0.00,,---,0.00,VWS V14.01,2013-01-09 12:32:00,
2013-01-09 06:37:00,23.1,20.6,30.44,ESE,120,0.0,0.0,90,0.00,,---,0.00,VWS V14.01,2013-01-09 12:37:00,
2013-01-09 06:42:00,22.9,20.4,30.44,ESE,120,0.0,0.0,90,0.00,,---,0.00,VWS V14.01,2013-01-09 12:42:00,
2013-01-09 06:47:00,22.7,20.2,30.44,ESE,120,0.0,0.0,90,0.00,,---,0.00,VWS V14.01,2013-01-09 12:47:00,
2013-01-09 06:52:00,22.5,20.0,30.45,ESE,120,2.0,2.0,90,0.00,,---,0.00,VWS V14.01,2013-01-09 12:52:00,
2013-01-09 06:57:00,22.5,20.0,30.45,ESE,123,2.0,4.0,90,0.00,,---,0.00,VWS V14.01,2013-01-09 12:57:00,
2013-01-09 07:02:00,22.4,19.7,30.46,SE,132,1.0,4.0,89,0.00,,---,0.00,VWS V14.01,2013-01-09 13:02:00,
2013-01-09 07:07:00,22.1,19.4,30.46,SE,132,0.0,1.0,89,0.00,,---,0.00,VWS V14.01,2013-01-09 13:07:00,
2013-01-09 07:12:00,21.9,19.2,30.47,SE,131,0.0,1.0,89,0.00,,---,0.00,VWS V14.01,2013-01-09 13:12:00,
2013-01-09 07:17:00,21.7,19.0,30.48,East,84,3.0,4.0,89,0.00,,---,0.00,VWS V14.01,2013-01-09 13:17:00,
2013-01-09 07:22:00,21.7,19.2,30.48,ESE,109,1.0,4.0,90,0.00,,---,0.00,VWS V14.01,2013-01-09 13:22:00,
2013-01-09 07:27:00,22.2,20.0,30.49,ESE,105,1.0,5.0,91,0.00,,---,0.00,VWS V14.01,2013-01-09 13:27:00,
2013-01-09 07:32:00,22.6,20.1,30.50,ESE,111,1.0,5.0,90,0.00,,---,0.00,VWS V14.01,2013-01-09 13:32:00,
2013-01-09 07:37:00,22.7,20.0,30.50,SE,125,0.0,3.0,89,0.00,,---,0.00,VWS V14.01,2013-01-09 13:37:00,
2013-01-09 07:42:00,22.7,20.0,30.50,SE,125,1.0,3.0,89,0.00,,---,0.00,VWS V14.01,2013-01-09 13:42:00,
2013-01-09 07:47:00,22.9,20.4,30.51,SE,124,1.0,3.0,90,0.00,,---,0.00,VWS V14.01,2013-01-09 13:47:00,
2013-01-09 07:52:00,23.1,20.4,30.51,SE,124,1.0,3.0,89,0.00,,---,0.00,VWS V14.01,2013-01-09 13:52:00,
2013-01-09 07:57:00,23.2,20.5,30.51,ESE,104,1.0,3.0,89,0.00,,---,0.00,VWS V14.01,2013-01-09 13:57:00,
2013-01-09 08:02:00,23.4,20.6,30.52,ESE,112,1.0,4.0,89,0.00,,---,0.00,VWS V14.01,2013-01-09 14:02:00,
2013-01-09 08:07:00,23.5,20.5,30.53,East,88,2.0,6.0,88,0.00,,---,0.00,VWS V14.01,2013-01-09 14:07:00,
2013-01-09 08:12:00,23.2,19.9,30.53,East,97,2.0,6.0,87,0.00,,---,0.00,VWS V14.01,2013-01-09 14:12:00,
2013-01-09 08:17:00,23.2,20.2,30.53,East,82,4.0,6.0,88,0.00,,---,0.00,VWS V14.01,2013-01-09 14:17:00,
2013-01-09 08:22:00,23.3,20.3,30.54,East,80,4.0,6.0,88,0.00,,---,0.00,VWS V14.01,2013-01-09 14:22:00,
2013-01-09 08:27:00,23.4,20.4,30.54,ESE,104,1.0,6.0,88,0.00,,---,0.00,VWS V14.01,2013-01-09 14:27:00,
2013-01-09 08:32:00,23.5,20.5,30.54,East,101,0.0,6.0,88,0.00,,---,0.00,VWS V14.01,2013-01-09 14:32:00,
2013-01-09 08:37:00,23.7,20.7,30.55,ESE,114,1.0,2.0,88,0.00,,---,0.00,VWS V14.01,2013-01-09 14:37:00,
2013-01-09 08:42:00,24.0,21.0,30.55,ESE,114,0.0,2.0,88,0.00,,---,0.00,VWS V14.01,2013-01-09 14:42:00,
2013-01-09 08:47:00,24.6,21.6,30.54,ESE,114,0.0,2.0,88,0.00,,---,0.00,VWS V14.01,2013-01-09 14:47:00,
2013-01-09 08:52:00,25.1,21.8,30.55,East,82,3.0,3.0,87,0.00,,---,0.00,VWS V14.01,2013-01-09 14:52:00,
2013-01-09 08:57:00,25.6,22.0,30.56,East,94,2.0,5.0,86,0.00,,---,0.00,VWS V14.01,2013-01-09 14:57:00,
2013-01-09 09:02:00,26.0,22.1,30.55,ESE,122,2.0,5.0,85,0.00,,---,0.00,VWS V14.01,2013-01-09 15:02:00,
2013-01-09 09:07:00,26.4,22.5,30.56,East,96,0.0,3.0,85,0.00,,---,0.00,VWS V14.01,2013-01-09 15:07:00,
2013-01-09 09:12:00,27.1,23.2,30.56,East,91,2.0,3.0,85,0.00,,---,0.00,VWS V14.01,2013-01-09 15:12:00,
2013-01-09 09:17:00,27.5,23.0,30.56,East,96,2.0,3.0,83,0.00,,---,0.00,VWS V14.01,2013-01-09 15:17:00,
2013-01-09 09:22:00,27.8,23.0,30.56,East,90,2.0,3.0,82,0.00,,---,0.00,VWS V14.01,2013-01-09 15:22:00,
2013-01-09 09:27:00,27.9,22.8,30.55,East,92,2.0,3.0,81,0.00,,---,0.00,VWS V14.01,2013-01-09 15:27:00,
2013-01-09 09:32:00,28.1,23.3,30.56,East,89,2.0,3.0,82,0.00,,---,0.00,VWS V14.01,2013-01-09 15:32:00,
2013-01-09 09:37:00,28.4,23.3,30.56,ESE,111,1.0,4.0,81,0.00,,---,0.00,VWS V14.01,2013-01-09 15:37:00,
2013-01-09 09:42:00,29.1,24.0,30.56,ESE,106,1.0,4.0,81,0.00,,---,0.00,VWS V14.01,2013-01-09 15:42:00,
2013-01-09 09:47:00,29.6,24.2,30.56,East,90,4.0,4.0,80,0.00,,---,0.00,VWS V14.01,2013-01-09 15:47:00,
2013-01-09 09:52:00,29.9,24.2,30.56,ENE,66,3.0,5.0,79,0.00,,---,0.00,VWS V14.01,2013-01-09 15:52:00,
2013-01-09 09:57:00,30.0,24.0,30.56,East,94,2.0,5.0,78,0.00,,---,0.00,VWS V14.01,2013-01-09 15:57:00,
2013-01-09 10:02:00,30.2,24.2,30.56,ENE,72,3.0,5.0,78,0.00,,---,0.00,VWS V14.01,2013-01-09 16:02:00,
2013-01-09 10:07:00,30.5,24.5,30.56,East,94,0.0,6.0,78,0.00,,---,0.00,VWS V14.01,2013-01-09 16:07:00,
2013-01-09 10:12:00,30.7,24.4,30.56,East,82,5.0,7.0,77,0.00,,---,0.00,VWS V14.01,2013-01-09 16:12:00,
2013-01-09 10:17:00,31.0,24.6,30.56,ESE,106,3.0,7.0,77,0.00,,---,0.00,VWS V14.01,2013-01-09 16:17:00,
2013-01-09 10:22:00,31.6,25.2,30.56,ESE,103,1.0,7.0,77,0.00,,---,0.00,VWS V14.01,2013-01-09 16:22:00,
2013-01-09 10:27:00,32.3,25.6,30.56,East,80,4.0,7.0,76,0.00,,---,0.00,VWS V14.01,2013-01-09 16:27:00,
2013-01-09 10:32:00,33.1,26.4,30.55,ENE,78,3.0,7.0,76,0.00,,---,0.00,VWS V14.01,2013-01-09 16:32:00,
2013-01-09 10:37:00,33.7,26.3,30.56,East,92,3.0,7.0,74,0.00,,---,0.00,VWS V14.01,2013-01-09 16:37:00,
2013-01-09 10:42:00,33.9,26.2,30.56,East,81,7.0,10.0,73,0.00,,---,0.00,VWS V14.01,2013-01-09 16:42:00,
2013-01-09 10:47:00,34.1,26.4,30.56,ENE,61,5.0,10.0,73,0.00,,---,0.00,VWS V14.01,2013-01-09 16:47:00,
2013-01-09 10:52:00,34.5,26.8,30.56,East,84,4.0,10.0,73,0.00,,---,0.00,VWS V14.01,2013-01-09 16:52:00,
2013-01-09 10:57:00,34.9,27.1,30.55,ENE,64,4.0,10.0,73,0.00,,---,0.00,VWS V14.01,2013-01-09 16:57:00,
2013-01-09 11:02:00,35.4,27.3,30.55,East,101,3.0,10.0,72,0.00,,---,0.00,VWS V14.01,2013-01-09 17:02:00,
2013-01-09 11:07:00,36.3,28.1,30.55,ESE,117,2.0,8.0,72,0.00,,---,0.00,VWS V14.01,2013-01-09 17:07:00,
2013-01-09 11:12:00,36.5,27.7,30.55,East,92,4.0,8.0,70,0.00,,---,0.00,VWS V14.01,2013-01-09 17:12:00,
2013-01-09 11:17:00,36.7,27.9,30.55,ESE,111,2.0,8.0,70,0.00,,---,0.00,VWS V14.01,2013-01-09 17:17:00,
2013-01-09 11:22:00,36.7,28.2,30.55,ESE,110,4.0,8.0,71,0.00,,---,0.00,VWS V14.01,2013-01-09 17:22:00,
2013-01-09 11:27:00,36.2,27.7,30.55,ESE,114,2.0,8.0,71,0.00,,---,0.00,VWS V14.01,2013-01-09 17:27:00,
2013-01-09 11:32:00,36.2,28.1,30.55,SE,125,4.0,8.0,72,0.00,,---,0.00,VWS V14.01,2013-01-09 17:32:00,
2013-01-09 11:37:00,36.1,28.0,30.55,ESE,117,3.0,6.0,72,0.00,,---,0.00,VWS V14.01,2013-01-09 17:37:00,
2013-01-09 11:42:00,36.2,28.1,30.54,ESE,113,5.0,8.0,72,0.00,,---,0.00,VWS V14.01,2013-01-09 17:42:00,
2013-01-09 11:47:00,36.4,28.2,30.54,ESE,104,2.0,8.0,72,0.00,,---,0.00,VWS V14.01,2013-01-09 17:47:00,
2013-01-09 11:52:00,36.6,28.4,30.54,SE,127,4.0,8.0,72,0.00,,---,0.00,VWS V14.01,2013-01-09 17:52:00,
2013-01-09 11:57:00,36.9,28.7,30.54,ESE,117,6.0,8.0,72,0.00,,---,0.00,VWS V14.01,2013-01-09 17:57:00,
2013-01-09 12:02:00,37.6,29.4,30.54,ESE,122,4.0,8.0,72,0.00,,---,0.00,VWS V14.01,2013-01-09 18:02:00,
2013-01-09 12:07:00,38.1,29.5,30.54,East,82,6.0,6.0,71,0.00,,---,0.00,VWS V14.01,2013-01-09 18:07:00,
2013-01-09 12:12:00,38.7,29.1,30.53,ESE,113,2.0,11.0,68,0.00,,---,0.00,VWS V14.01,2013-01-09 18:12:00,
2013-01-09 12:17:00,38.9,28.9,30.53,ENE,66,3.0,11.0,67,0.00,,---,0.00,VWS V14.01,2013-01-09 18:17:00,
2013-01-09 12:22:00,39.0,29.0,30.52,ESE,103,1.0,11.0,67,0.00,,---,0.00,VWS V14.01,2013-01-09 18:22:00,
2013-01-09 12:27:00,38.9,28.9,30.52,ESE,117,3.0,11.0,67,0.00,,---,0.00,VWS V14.01,2013-01-09 18:27:00,
2013-01-09 12:32:00,38.8,28.8,30.51,East,86,4.0,11.0,67,0.00,,---,0.00,VWS V14.01,2013-01-09 18:32:00,
2013-01-09 12:37:00,39.1,29.1,30.51,ESE,104,4.0,4.0,67,0.00,,---,0.00,VWS V14.01,2013-01-09 18:37:00,
2013-01-09 12:41:00,39.3,29.3,30.51,East,91,5.0,6.0,67,0.00,,---,0.00,VWS V14.01,2013-01-09 18:41:00,
2013-01-09 12:44:00,39.6,29.6,30.51,ESE,110,1.0,6.0,67,0.00,,---,0.00,VWS V14.01,2013-01-09 18:44:00,
2013-01-09 12:45:00,39.7,29.7,30.50,ESE,115,3.0,6.0,67,0.00,,---,0.00,VWS V14.01,2013-01-09 18:45:00,
2013-01-09 12:48:00,40.0,29.9,30.50,ESE,120,1.0,7.0,67,0.00,,---,0.00,VWS V14.01,2013-01-09 18:48:00,
2013-01-09 12:49:00,40.1,30.0,30.50,ESE,118,3.0,7.0,67,0.00,,---,0.00,VWS V14.01,2013-01-09 18:49:00,
2013-01-09 12:54:00,40.3,29.9,30.49,SE,126,4.0,7.0,66,0.00,,---,0.00,VWS V14.01,2013-01-09 18:54:00,
2013-01-09 12:59:00,40.8,30.0,30.49,SE,134,3.0,7.0,65,0.00,,---,0.00,VWS V14.01,2013-01-09 18:59:00,
2013-01-09 13:04:00,41.0,30.1,30.49,East,85,3.0,6.0,65,0.00,,---,0.00,VWS V14.01,2013-01-09 19:04:00,
2013-01-09 13:09:00,40.9,30.1,30.48,SE,124,4.0,6.0,65,0.00,,---,0.00,VWS V14.01,2013-01-09 19:09:00,
2013-01-09 13:14:00,41.0,30.1,30.48,ESE,122,1.0,7.0,65,0.00,,---,0.00,VWS V14.01,2013-01-09 19:14:00,
2013-01-09 13:19:00,41.2,30.3,30.48,ESE,110,2.0,7.0,65,0.00,,---,0.00,VWS V14.01,2013-01-09 19:19:00,
2013-01-09 13:24:00,41.6,30.3,30.47,ESE,123,2.0,7.0,64,0.00,,---,0.00,VWS V14.01,2013-01-09 19:24:00,
2013-01-09 13:29:00,42.0,30.3,30.47,SE,124,1.0,7.0,63,0.00,,---,0.00,VWS V14.01,2013-01-09 19:29:00,
2013-01-09 13:34:00,42.5,30.8,30.47,East,94,4.0,9.0,63,0.00,,---,0.00,VWS V14.01,2013-01-09 19:34:00,
2013-01-09 13:39:00,42.6,30.5,30.46,ESE,122,2.0,9.0,62,0.00,,---,0.00,VWS V14.01,2013-01-09 19:39:00,
2013-01-09 13:44:00,42.7,30.6,30.46,ESE,118,2.0,9.0,62,0.00,,---,0.00,VWS V14.01,2013-01-09 19:44:00,
2013-01-09 13:49:00,42.8,31.1,30.46,East,90,3.0,9.0,63,0.00,,---,0.00,VWS V14.01,2013-01-09 19:49:00,
2013-01-09 13:54:00,42.9,31.2,30.46,East,80,3.0,9.0,63,0.00,,---,0.00,VWS V14.01,2013-01-09 19:54:00,
2013-01-09 13:59:00,43.0,30.9,30.47,East,83,4.0,9.0,62,0.00,,---,0.00,VWS V14.01,2013-01-09 19:59:00,
2013-01-09 14:04:00,42.8,31.1,30.46,ESE,117,2.0,6.0,63,0.00,,---,0.00,VWS V14.01,2013-01-09 20:04:00,
2013-01-09 14:09:00,43.2,31.1,30.46,East,82,7.0,7.0,62,0.00,,---,0.00,VWS V14.01,2013-01-09 20:09:00,
2013-01-09 14:14:00,43.5,31.0,30.46,ENE,77,3.0,8.0,61,0.00,,---,0.00,VWS V14.01,2013-01-09 20:14:00,
2013-01-09 14:19:00,43.6,31.0,30.46,ENE,62,4.0,8.0,61,0.00,,---,0.00,VWS V14.01,2013-01-09 20:19:00,
2013-01-09 14:24:00,43.6,31.0,30.46,ESE,106,2.0,8.0,61,0.00,,---,0.00,VWS V14.01,2013-01-09 20:24:00,
2013-01-09 14:29:00,44.0,31.4,30.46,East,92,3.0,8.0,61,0.00,,---,0.00,VWS V14.01,2013-01-09 20:29:00,
2013-01-09 14:34:00,44.1,30.7,30.46,ESE,106,2.0,4.0,59,0.00,,---,0.00,VWS V14.01,2013-01-09 20:34:00,
2013-01-09 14:39:00,44.3,30.9,30.46,ESE,118,2.0,8.0,59,0.00,,---,0.00,VWS V14.01,2013-01-09 20:39:00,
2013-01-09 14:44:00,44.4,31.4,30.46,East,79,4.0,8.0,60,0.00,,---,0.00,VWS V14.01,2013-01-09 20:44:00,
2013-01-09 14:49:00,44.3,31.3,30.46,East,83,4.0,8.0,60,0.00,,---,0.00,VWS V14.01,2013-01-09 20:49:00,
2013-01-09 14:54:00,44.4,31.4,30.46,East,90,2.0,8.0,60,0.00,,---,0.00,VWS V14.01,2013-01-09 20:54:00,
2013-01-09 14:59:00,44.5,31.5,30.45,ENE,74,3.0,8.0,60,0.00,,---,0.00,VWS V14.01,2013-01-09 20:59:00,
2013-01-09 15:04:00,44.5,31.5,30.45,ENE,67,4.0,6.0,60,0.00,,---,0.00,VWS V14.01,2013-01-09 21:04:00,
2013-01-09 15:09:00,44.7,31.3,30.46,East,90,2.0,6.0,59,0.00,,---,0.00,VWS V14.01,2013-01-09 21:09:00,
2013-01-09 15:14:00,44.6,31.2,30.46,East,80,2.0,6.0,59,0.00,,---,0.00,VWS V14.01,2013-01-09 21:14:00,
2013-01-09 15:19:00,44.8,31.4,30.46,ESE,111,2.0,6.0,59,0.00,,---,0.00,VWS V14.01,2013-01-09 21:19:00,
2013-01-09 15:24:00,44.7,31.7,30.45,East,95,1.0,6.0,60,0.00,,---,0.00,VWS V14.01,2013-01-09 21:24:00,
2013-01-09 15:29:00,44.6,31.6,30.46,ENE,58,4.0,6.0,60,0.00,,---,0.00,VWS V14.01,2013-01-09 21:29:00,
2013-01-09 15:34:00,43.8,31.2,30.46,NNW,347,4.0,5.0,61,0.00,,---,0.00,VWS V14.01,2013-01-09 21:34:00,
2013-01-09 15:39:00,43.1,31.0,30.45,NE,52,2.0,5.0,62,0.00,,---,0.00,VWS V14.01,2013-01-09 21:39:00,
2013-01-09 15:44:00,42.9,31.2,30.45,East,89,2.0,5.0,63,0.00,,---,0.00,VWS V14.01,2013-01-09 21:44:00,
2013-01-09 15:49:00,42.7,31.0,30.45,ENE,67,3.0,5.0,63,0.00,,---,0.00,VWS V14.01,2013-01-09 21:49:00,
2013-01-09 15:54:00,42.2,30.5,30.45,NE,56,4.0,8.0,63,0.00,,---,0.00,VWS V14.01,2013-01-09 21:54:00,
2013-01-09 15:59:00,41.8,30.9,30.44,East,98,1.0,8.0,65,0.00,,---,0.00,VWS V14.01,2013-01-09 21:59:00,
2013-01-09 16:04:00,41.7,30.8,30.44,East,97,2.0,2.0,65,0.00,,---,0.00,VWS V14.01,2013-01-09 22:04:00,
2013-01-09 16:09:00,41.4,30.9,30.45,NNE,32,4.0,7.0,66,0.00,,---,0.00,VWS V14.01,2013-01-09 22:09:00,
2013-01-09 16:14:00,41.0,30.9,30.45,East,94,1.0,7.0,67,0.00,,---,0.00,VWS V14.01,2013-01-09 22:14:00,
2013-01-09 16:19:00,40.7,30.6,30.45,East,94,1.0,7.0,67,0.00,,---,0.00,VWS V14.01,2013-01-09 22:19:00,
2013-01-09 16:24:00,40.4,30.7,30.45,East,92,1.0,7.0,68,0.00,,---,0.00,VWS V14.01,2013-01-09 22:24:00,
2013-01-09 16:29:00,40.1,30.4,30.45,East,90,2.0,7.0,68,0.00,,---,0.00,VWS V14.01,2013-01-09 22:29:00,
2013-01-09 16:34:00,40.0,30.7,30.44,ENE,78,0.0,2.0,69,0.00,,---,0.00,VWS V14.01,2013-01-09 22:34:00,
2013-01-09 16:39:00,39.9,30.9,30.44,East,97,1.0,4.0,70,0.00,,---,0.00,VWS V14.01,2013-01-09 22:39:00,
2013-01-09 16:44:00,39.8,30.5,30.45,ESE,108,0.0,4.0,69,0.00,,---,0.00,VWS V14.01,2013-01-09 22:44:00,
2013-01-09 16:49:00,39.7,30.7,30.44,East,90,1.0,4.0,70,0.00,,---,0.00,VWS V14.01,2013-01-09 22:49:00,
2013-01-09 16:54:00,39.7,30.4,30.44,East,87,1.0,4.0,69,0.00,,---,0.00,VWS V14.01,2013-01-09 22:54:00,
2013-01-09 16:59:00,39.6,30.3,30.44,East,85,2.0,5.0,69,0.00,,---,0.00,VWS V14.01,2013-01-09 22:59:00,
2013-01-09 17:04:00,39.4,30.4,30.44,ENE,57,3.0,4.0,70,0.00,,---,0.00,VWS V14.01,2013-01-09 23:04:00,
2013-01-09 17:09:00,39.2,30.2,30.43,ENE,75,1.0,4.0,70,0.00,,---,0.00,VWS V14.01,2013-01-09 23:09:00,
2013-01-09 17:14:00,38.9,30.0,30.43,ENE,64,2.0,4.0,70,0.00,,---,0.00,VWS V14.01,2013-01-09 23:14:00,
2013-01-09 17:19:00,38.6,30.0,30.43,East,88,2.0,4.0,71,0.00,,---,0.00,VWS V14.01,2013-01-09 23:19:00,
2013-01-09 17:24:00,38.2,30.0,30.43,East,85,0.0,4.0,72,0.00,,---,0.00,VWS V14.01,2013-01-09 23:24:00,
2013-01-09 17:29:00,37.8,29.6,30.43,NE,52,1.0,4.0,72,0.00,,---,0.00,VWS V14.01,2013-01-09 23:29:00,
2013-01-09 17:34:00,37.5,29.6,30.43,ENE,61,1.0,4.0,73,0.00,,---,0.00,VWS V14.01,2013-01-09 23:34:00,
2013-01-09 17:39:00,37.1,29.6,30.45,East,83,2.0,6.0,74,0.00,,---,0.00,VWS V14.01,2013-01-09 23:39:00,
2013-01-09 17:44:00,36.8,29.6,30.44,ENE,78,3.0,9.0,75,0.00,,---,0.00,VWS V14.01,2013-01-09 23:44:00,
2013-01-09 17:49:00,36.5,29.3,30.45,ENE,78,2.0,12.0,75,0.00,,---,0.00,VWS V14.01,2013-01-09 23:49:00,
2013-01-09 17:54:00,36.2,29.0,30.45,East,84,3.0,12.0,75,0.00,,---,0.00,VWS V14.01,2013-01-09 23:54:00,
2013-01-09 17:59:00,35.9,29.1,30.45,East,92,1.0,12.0,76,0.00,,---,0.00,VWS V14.01,2013-01-09 23:59:00,
2013-01-09 18:04:00,35.6,29.1,30.44,NE,41,4.0,4.0,77,0.00,,---,0.00,VWS V14.01,2013-01-10 00:04:00,
2013-01-09 18:09:00,35.3,28.8,30.44,East,94,2.0,7.0,77,0.00,,---,0.00,VWS V14.01,2013-01-10 00:09:00,
2013-01-09 18:14:00,35.1,28.9,30.44,NE,52,4.0,7.0,78,0.00,,---,0.00,VWS V14.01,2013-01-10 00:14:00,
2013-01-09 18:19:00,35.0,28.9,30.44,East,82,2.0,7.0,78,0.00,,---,0.00,VWS V14.01,2013-01-10 00:19:00,
2013-01-09 18:24:00,35.0,28.9,30.43,East,90,4.0,7.0,78,0.00,,---,0.00,VWS V14.01,2013-01-10 00:24:00,
2013-01-09 18:29:00,35.0,28.9,30.43,ENE,61,2.0,7.0,78,0.00,,---,0.00,VWS V14.01,2013-01-10 00:29:00,
2013-01-09 18:34:00,34.8,28.6,30.43,ESE,114,2.0,3.0,78,0.00,,---,0.00,VWS V14.01,2013-01-10 00:34:00,
2013-01-09 18:39:00,34.8,28.6,30.42,ENE,68,0.0,4.0,78,0.00,,---,0.00,VWS V14.01,2013-01-10 00:39:00,
2013-01-09 18:44:00,34.7,28.9,30.43,ENE,68,1.0,4.0,79,0.00,,---,0.00,VWS V14.01,2013-01-10 00:44:00,
2013-01-09 18:49:00,34.6,28.8,30.43,ENE,64,1.0,4.0,79,0.00,,---,0.00,VWS V14.01,2013-01-10 00:49:00,
2013-01-09 18:54:00,34.4,28.6,30.43,East,82,1.0,4.0,79,0.00,,---,0.00,VWS V14.01,2013-01-10 00:54:00,
2013-01-09 18:59:00,34.3,28.5,30.43,NE,49,1.0,4.0,79,0.00,,---,0.00,VWS V14.01,2013-01-10 00:59:00,
2013-01-09 19:04:00,34.2,28.4,30.43,NE,51,2.0,5.0,79,0.00,,---,0.00,VWS V14.01,2013-01-10 01:04:00,
2013-01-09 19:09:00,34.1,28.6,30.44,NE,46,3.0,9.0,80,0.00,,---,0.00,VWS V14.01,2013-01-10 01:09:00,
2013-01-09 19:14:00,34.1,28.6,30.46,ENE,59,11.0,13.0,80,0.00,,---,0.00,VWS V14.01,2013-01-10 01:14:00,
2013-01-09 19:19:00,34.3,28.5,30.46,NNE,31,3.0,13.0,79,0.00,,---,0.00,VWS V14.01,2013-01-10 01:19:00,
2013-01-09 19:24:00,34.4,28.3,30.46,North,7,12.0,13.0,78,0.00,,---,0.00,VWS V14.01,2013-01-10 01:24:00,
2013-01-09 19:29:00,34.6,28.5,30.46,NNE,32,4.0,13.0,78,0.00,,---,0.00,VWS V14.01,2013-01-10 01:29:00,
2013-01-09 19:34:00,34.9,28.8,30.46,North,7,5.0,8.0,78,0.00,,---,0.00,VWS V14.01,2013-01-10 01:34:00,
2013-01-09 19:39:00,35.1,28.9,30.46,NNE,23,8.0,13.0,78,0.00,,---,0.00,VWS V14.01,2013-01-10 01:39:00,
2013-01-09 19:44:00,35.2,29.0,30.46,NE,55,6.0,13.0,78,0.00,,---,0.00,VWS V14.01,2013-01-10 01:44:00,
2013-01-09 19:49:00,35.3,29.5,30.47,NNE,16,7.0,13.0,79,0.00,,---,0.00,VWS V14.01,2013-01-10 01:49:00,
2013-01-09 19:54:00,35.6,29.7,30.47,NE,55,6.0,14.0,79,0.00,,---,0.00,VWS V14.01,2013-01-10 01:54:00,
2013-01-09 19:59:00,35.9,30.0,30.47,ENE,59,4.0,14.0,79,0.00,,---,0.00,VWS V14.01,2013-01-10 01:59:00,
2013-01-09 20:04:00,36.0,30.1,30.46,NNE,27,4.0,6.0,79,0.00,,---,0.00,VWS V14.01,2013-01-10 02:04:00,
2013-01-09 20:09:00,36.3,30.4,30.45,NE,56,2.0,8.0,79,0.00,,---,0.00,VWS V14.01,2013-01-10 02:09:00,
2013-01-09 20:14:00,36.4,30.2,30.45,ENE,78,2.0,8.0,78,0.00,,---,0.00,VWS V14.01,2013-01-10 02:14:00,
2013-01-09 20:19:00,36.5,30.3,30.45,ENE,77,3.0,9.0,78,0.00,,---,0.00,VWS V14.01,2013-01-10 02:19:00,
2013-01-09 20:24:00,36.5,30.3,30.45,ENE,59,3.0,9.0,78,0.00,,---,0.00,VWS V14.01,2013-01-10 02:24:00,
2013-01-09 20:29:00,36.5,30.0,30.45,NNW,343,3.0,9.0,77,0.00,,---,0.00,VWS V14.01,2013-01-10 02:29:00,
2013-01-09 20:34:00,36.6,30.1,30.45,ENE,78,2.0,3.0,77,0.00,,---,0.00,VWS V14.01,2013-01-10 02:34:00,
2013-01-09 20:39:00,36.5,29.7,30.45,ENE,74,3.0,5.0,76,0.00,,---,0.00,VWS V14.01,2013-01-10 02:39:00,
2013-01-09 20:44:00,36.3,29.8,30.45,East,82,3.0,5.0,77,0.00,,---,0.00,VWS V14.01,2013-01-10 02:44:00,
2013-01-09 20:49:00,36.3,29.8,30.45,East,96,2.0,6.0,77,0.00,,---,0.00,VWS V14.01,2013-01-10 02:49:00,
2013-01-09 20:54:00,36.2,29.4,30.44,East,84,7.0,11.0,76,0.00,,---,0.00,VWS V14.01,2013-01-10 02:54:00,
2013-01-09 20:59:00,36.2,29.4,30.44,NE,49,3.0,11.0,76,0.00,,---,0.00,VWS V14.01,2013-01-10 02:59:00,
2013-01-09 21:04:00,35.9,29.4,30.44,East,94,2.0,5.0,77,0.00,,---,0.00,VWS V14.01,2013-01-10 03:04:00,
2013-01-09 21:09:00,35.7,29.2,30.44,ENE,73,4.0,7.0,77,0.00,,---,0.00,VWS V14.01,2013-01-10 03:09:00,
2013-01-09 21:14:00,35.5,29.0,30.44,ENE,64,4.0,7.0,77,0.00,,---,0.00,VWS V14.01,2013-01-10 03:14:00,
2013-01-09 21:19:00,35.3,28.8,30.44,East,92,1.0,7.0,77,0.00,,---,0.00,VWS V14.01,2013-01-10 03:19:00,
2013-01-09 21:24:00,35.1,28.6,30.44,East,85,1.0,7.0,77,0.00,,---,0.00,VWS V14.01,2013-01-10 03:24:00,
2013-01-09 21:29:00,34.9,28.8,30.44,NNE,23,3.0,7.0,78,0.00,,---,0.00,VWS V14.01,2013-01-10 03:29:00,
2013-01-09 21:34:00,34.7,28.5,30.43,East,83,4.0,4.0,78,0.00,,---,0.00,VWS V14.01,2013-01-10 03:34:00,
2013-01-09 21:39:00,34.7,28.5,30.44,East,98,2.0,6.0,78,0.00,,---,0.00,VWS V14.01,2013-01-10 03:39:00,
2013-01-09 21:44:00,34.5,28.4,30.44,East,85,2.0,6.0,78,0.00,,---,0.00,VWS V14.01,2013-01-10 03:44:00,
2013-01-09 21:49:00,34.4,28.3,30.44,North,4,3.0,6.0,78,0.00,,---,0.00,VWS V14.01,2013-01-10 03:49:00,
2013-01-09 21:54:00,34.3,28.2,30.43,East,84,2.0,7.0,78,0.00,,---,0.00,VWS V14.01,2013-01-10 03:54:00,
2013-01-09 21:59:00,34.3,28.2,30.43,ENE,65,4.0,7.0,78,0.00,,---,0.00,VWS V14.01,2013-01-10 03:59:00,
2013-01-09 22:04:00,34.1,28.0,30.44,East,87,2.0,4.0,78,0.00,,---,0.00,VWS V14.01,2013-01-10 04:04:00,
2013-01-09 22:08:00,33.9,27.8,30.44,East,94,3.0,7.0,78,0.00,,---,0.00,VWS V14.01,2013-01-10 04:08:00,
2013-01-09 22:13:00,34.0,27.9,30.44,East,85,3.0,7.0,78,0.00,,---,0.00,VWS V14.01,2013-01-10 04:13:00,
2013-01-09 22:18:00,34.1,27.7,30.44,East,80,4.0,8.0,77,0.00,,---,0.00,VWS V14.01,2013-01-10 04:18:00,
2013-01-09 22:23:00,34.4,28.0,30.44,East,91,3.0,8.0,77,0.00,,---,0.00,VWS V14.01,2013-01-10 04:23:00,
2013-01-09 22:28:00,34.5,27.7,30.44,East,82,6.0,10.0,76,0.00,,---,0.00,VWS V14.01,2013-01-10 04:28:00,
2013-01-09 22:33:00,34.7,27.9,30.44,East,88,1.0,5.0,76,0.00,,---,0.00,VWS V14.01,2013-01-10 04:33:00,
2013-01-09 22:38:00,34.6,27.8,30.44,ESE,106,5.0,8.0,76,0.00,,---,0.00,VWS V14.01,2013-01-10 04:38:00,
2013-01-09 22:43:00,34.3,27.5,30.45,NE,42,5.0,8.0,76,0.00,,---,0.00,VWS V14.01,2013-01-10 04:43:00,
2013-01-09 22:48:00,34.0,27.2,30.45,East,88,1.0,8.0,76,0.00,,---,0.00,VWS V14.01,2013-01-10 04:48:00,
2013-01-09 22:53:00,33.6,27.2,30.45,East,85,2.0,8.0,77,0.00,,---,0.00,VWS V14.01,2013-01-10 04:53:00,
2013-01-09 22:58:00,33.3,26.9,30.45,East,80,1.0,8.0,77,0.00,,---,0.00,VWS V14.01,2013-01-10 04:58:00,
2013-01-09 23:00:00,33.2,27.1,30.45,ENE,73,1.0,8.0,78,0.00,,---,0.00,VWS V14.01,2013-01-10 05:00:00,
2013-01-09 23:05:00,32.9,26.8,30.45,East,94,0.0,4.0,78,0.00,,---,0.00,VWS V14.01,2013-01-10 05:05:00,
2013-01-09 23:10:00,32.6,26.8,30.45,East,98,1.0,4.0,79,0.00,,---,0.00,VWS V14.01,2013-01-10 05:10:00,
2013-01-09 23:15:00,32.5,26.7,30.45,East,85,2.0,5.0,79,0.00,,---,0.00,VWS V14.01,2013-01-10 05:15:00,
2013-01-09 23:20:00,32.4,26.6,30.45,East,87,1.0,5.0,79,0.00,,---,0.00,VWS V14.01,2013-01-10 05:20:00,
2013-01-09 23:25:00,32.6,26.8,30.45,East,87,1.0,7.0,79,0.00,,---,0.00,VWS V14.01,2013-01-10 05:25:00,
2013-01-09 23:30:00,32.7,26.9,30.45,ENE,76,6.0,7.0,79,0.00,,---,0.00,VWS V14.01,2013-01-10 05:30:00,
2013-01-09 23:35:00,33.0,27.2,30.45,East,97,2.0,9.0,79,0.00,,---,0.00,VWS V14.01,2013-01-10 05:35:00,
2013-01-09 23:40:00,32.9,27.1,30.45,East,91,2.0,9.0,79,0.00,,---,0.00,VWS V14.01,2013-01-10 05:40:00,
2013-01-09 23:45:00,33.0,27.2,30.45,ENE,64,5.0,9.0,79,0.00,,---,0.00,VWS V14.01,2013-01-10 05:45:00,
2013-01-09 23:50:00,32.9,26.8,30.44,East,92,1.0,9.0,78,0.00,,---,0.00,VWS V14.01,2013-01-10 05:50:00,
2013-01-09 23:55:00,32.8,27.0,30.44,East,85,1.0,9.0,79,0.00,,---,0.00,VWS V14.01,2013-01-10 05:55:00,